Geary, Oklahoma
Current Conditions -  °F | °C
As of 3:35 AM on Sunday 26 Oct 2014 (Local Time) from KJWG Reporting Station
Clear Clear  
Wind Chill: 67°   Ceiling: Unl
Heat Index: 67°   Visibility: 10mi
Dew Point: 56°   Wind: 12mph
Humidity: 67%   Direction: 210°SSW
Pressure: 29.94"   Gusts: NA
Location:  35.63°N, 98.32°W
Report Text: KJWG 260835Z AUTO 21010KT 10SM CLR 20/14 A2994 RMK AO2 T01970135
Loading
Personal Weather Stations






























Interactive Weather Map
Tropical Storm Tracking
New forecast layout! Learn more

10-Day Weather Forecast

Advertisements
Track Severe Weather on mobile